createdAt,value
2018-11-11T00:00:11.797Z,13.86
2018-11-11T00:01:11.924Z,13.93
2018-11-11T00:02:12.068Z,13.93
2018-11-11T00:03:12.207Z,13.93
2018-11-11T00:04:12.335Z,13.91
2018-11-11T00:05:12.466Z,13.94
2018-11-11T00:06:12.613Z,13.90
2018-11-11T00:07:12.739Z,14.01
2018-11-11T00:08:12.870Z,13.97
2018-11-11T00:09:13.626Z,13.97
2018-11-11T00:11:45.041Z,13.94
2018-11-11T00:12:55.856Z,13.90
2018-11-11T00:13:45.356Z,13.91
2018-11-11T00:14:45.485Z,13.86
2018-11-11T00:15:45.650Z,13.85
2018-11-11T00:17:07.900Z,13.86
2018-11-11T00:17:45.904Z,13.86
2018-11-11T00:18:46.050Z,13.83
2018-11-11T00:19:46.199Z,13.96
2018-11-11T00:21:14.323Z,13.96
2018-11-11T00:21:46.511Z,14.00
2018-11-11T00:22:46.585Z,13.85
2018-11-11T00:23:46.719Z,13.85
2018-11-11T00:24:46.850Z,13.94
2018-11-11T00:25:46.976Z,13.88
2018-11-11T00:26:47.117Z,13.90
2018-11-11T00:27:47.246Z,13.78
2018-11-11T00:28:47.460Z,13.82
2018-11-11T00:29:47.557Z,13.78
2018-11-11T00:30:47.688Z,13.80
2018-11-11T00:31:47.833Z,13.85
2018-11-11T00:32:47.962Z,13.88
2018-11-11T00:33:48.092Z,13.86
2018-11-11T00:34:48.226Z,13.96
2018-11-11T00:35:48.361Z,13.85
2018-11-11T00:36:48.496Z,13.82
2018-11-11T00:37:48.633Z,13.88
2018-11-11T00:38:48.769Z,13.78
2018-11-11T00:39:48.902Z,13.73
2018-11-11T00:40:49.036Z,13.76
2018-11-11T00:41:49.168Z,13.67
2018-11-11T00:42:49.307Z,13.72
2018-11-11T00:43:49.441Z,13.67
2018-11-11T00:44:49.576Z,13.76
2018-11-11T00:45:49.717Z,13.61
2018-11-11T00:46:49.859Z,13.68
2018-11-11T00:47:49.989Z,13.54
2018-11-11T00:48:50.121Z,13.65
2018-11-11T00:49:50.256Z,13.71
2018-11-11T00:50:50.391Z,13.61
2018-11-11T00:51:50.531Z,13.65
2018-11-11T00:52:50.664Z,13.61
2018-11-11T00:53:50.796Z,13.60
2018-11-11T00:54:50.945Z,13.46
2018-11-11T00:55:51.076Z,13.39
2018-11-11T00:56:51.206Z,13.43
2018-11-11T00:57:51.363Z,13.39
2018-11-11T00:58:51.492Z,13.14
2018-11-11T00:59:51.628Z,12.99
2018-11-11T01:00:51.772Z,12.83
2018-11-11T01:01:51.901Z,12.77
2018-11-11T01:02:52.043Z,12.65
2018-11-11T01:03:52.176Z,12.72
2018-11-11T01:04:52.305Z,12.62
2018-11-11T01:05:52.442Z,12.65
2018-11-11T01:06:52.577Z,12.58
2018-11-11T01:07:52.706Z,12.58
2018-11-11T01:08:52.842Z,12.54
2018-11-11T01:09:52.974Z,12.58
2018-11-11T01:10:53.109Z,12.59
2018-11-11T01:11:53.241Z,12.53
2018-11-11T01:12:53.374Z,12.59
2018-11-11T01:13:53.508Z,12.48
2018-11-11T01:14:53.641Z,12.41
2018-11-11T01:15:53.774Z,12.47
2018-11-11T01:16:53.916Z,12.40
2018-11-11T01:17:54.047Z,12.33
2018-11-11T01:18:54.182Z,12.28
2018-11-11T01:19:54.317Z,12.25
2018-11-11T01:20:54.451Z,12.22
2018-11-11T01:21:54.581Z,12.26
2018-11-11T01:22:54.719Z,12.25
2018-11-11T01:23:54.844Z,12.25
2018-11-11T01:24:54.975Z,12.23
2018-11-11T01:25:55.106Z,12.22
2018-11-11T01:26:55.904Z,12.18
2018-11-11T01:27:55.308Z,12.21
2018-11-11T01:28:55.448Z,12.26
2018-11-11T01:30:00.468Z,12.17
2018-11-11T01:30:55.722Z,12.25
2018-11-11T01:31:55.853Z,12.22
2018-11-11T01:32:55.985Z,12.36
2018-11-11T01:33:56.115Z,12.41
2018-11-11T01:34:56.252Z,12.22
2018-11-11T01:35:56.387Z,12.33
2018-11-11T01:36:56.519Z,12.35
2018-11-11T01:37:56.652Z,12.41
2018-11-11T01:38:56.782Z,12.43
2018-11-11T01:39:56.917Z,12.40
2018-11-11T01:40:57.050Z,12.46
2018-11-11T01:41:57.207Z,12.38
2018-11-11T01:43:07.970Z,12.32
2018-11-11T01:43:57.510Z,12.41
2018-11-11T01:44:57.643Z,12.46
2018-11-11T01:45:57.773Z,12.32
2018-11-11T01:46:57.966Z,12.46
2018-11-11T01:47:57.973Z,12.33
2018-11-11T01:48:58.106Z,12.44
2018-11-11T01:49:58.239Z,12.41
2018-11-11T01:50:58.372Z,12.33
2018-11-11T01:51:58.503Z,12.41
2018-11-11T01:52:58.633Z,12.43
2018-11-11T01:53:58.761Z,12.41
2018-11-11T01:54:58.904Z,12.36
2018-11-11T01:55:59.052Z,12.36
2018-11-11T01:56:59.163Z,12.47
2018-11-11T01:57:59.296Z,12.41
2018-11-11T01:58:59.432Z,12.50
2018-11-11T01:59:59.572Z,12.48
2018-11-11T02:00:59.703Z,12.46
2018-11-11T02:01:59.834Z,12.47
2018-11-11T02:02:59.977Z,12.51
2018-11-11T02:04:00.109Z,12.41
2018-11-11T02:05:00.244Z,12.38
2018-11-11T02:06:00.378Z,12.44
2018-11-11T02:07:00.516Z,12.41
2018-11-11T02:08:00.648Z,12.38
2018-11-11T02:09:00.784Z,12.38
2018-11-11T02:10:00.914Z,12.18
2018-11-11T02:11:01.049Z,12.26
2018-11-11T02:12:01.207Z,12.23
2018-11-11T02:13:02.279Z,12.26
2018-11-11T02:14:01.426Z,12.23
2018-11-11T02:15:01.564Z,12.29
2018-11-11T02:16:01.691Z,12.17
2018-11-11T02:17:01.825Z,12.23
2018-11-11T02:18:01.967Z,12.28
2018-11-11T02:19:02.098Z,12.26
2018-11-11T02:20:02.235Z,12.30
2018-11-11T02:21:02.430Z,12.15
2018-11-11T02:22:02.500Z,12.29
2018-11-11T02:23:02.634Z,12.22
2018-11-11T02:24:02.808Z,12.25
2018-11-11T02:26:35.490Z,12.18
2018-11-11T02:27:35.621Z,12.28
2018-11-11T02:28:35.751Z,12.22
2018-11-11T02:29:35.906Z,12.23
2018-11-11T02:31:03.892Z,12.29
2018-11-11T02:31:36.141Z,12.23
2018-11-11T02:32:36.279Z,12.25
2018-11-11T02:33:36.422Z,12.21
2018-11-11T02:34:36.629Z,12.18
2018-11-11T02:35:36.631Z,12.13
2018-11-11T02:36:36.762Z,12.07
2018-11-11T02:37:36.945Z,12.13
2018-11-11T02:38:37.024Z,12.11
2018-11-11T02:39:37.155Z,12.00
2018-11-11T02:40:37.280Z,12.05
2018-11-11T02:41:37.413Z,12.10
2018-11-11T02:42:37.612Z,12.04
2018-11-11T02:43:37.621Z,11.97
2018-11-11T02:44:37.747Z,11.97
2018-11-11T02:45:37.887Z,12.05
2018-11-11T02:46:38.017Z,11.99
2018-11-11T02:47:38.155Z,11.96
2018-11-11T02:48:38.279Z,12.05
2018-11-11T02:49:38.412Z,11.99
2018-11-11T02:50:38.559Z,11.99
2018-11-11T02:51:38.749Z,12.04
2018-11-11T02:52:38.819Z,12.00
2018-11-11T02:53:38.950Z,11.99
2018-11-11T02:54:39.086Z,11.96
2018-11-11T02:55:39.214Z,11.95
2018-11-11T02:56:39.347Z,11.93
2018-11-11T02:57:39.477Z,11.95
2018-11-11T02:58:39.611Z,11.95
2018-11-11T02:59:39.785Z,11.95
2018-11-11T03:00:39.912Z,12.07
2018-11-11T03:01:40.045Z,12.15
2018-11-11T03:02:40.177Z,11.99
2018-11-11T03:03:40.316Z,11.93
2018-11-11T03:04:40.435Z,11.96
2018-11-11T03:05:40.564Z,11.93
2018-11-11T03:06:40.695Z,11.93
2018-11-11T03:07:40.829Z,11.96
2018-11-11T03:08:40.967Z,11.96
2018-11-11T03:09:41.105Z,11.95
2018-11-11T03:10:41.228Z,12.03
2018-11-11T03:11:41.363Z,11.95
2018-11-11T03:12:41.496Z,11.93
2018-11-11T03:13:41.626Z,11.97
2018-11-11T03:14:41.758Z,11.99
2018-11-11T03:15:41.897Z,11.99
2018-11-11T03:16:42.027Z,11.89
2018-11-11T03:17:42.161Z,11.97
2018-11-11T03:18:42.289Z,11.99
2018-11-11T03:19:42.421Z,11.99
2018-11-11T03:20:42.555Z,11.96
2018-11-11T03:21:42.688Z,11.96
2018-11-11T03:22:42.818Z,11.95
2018-11-11T03:23:42.948Z,11.97
2018-11-11T03:24:43.077Z,12.00
2018-11-11T03:25:43.215Z,11.95
2018-11-11T03:26:43.346Z,11.95
2018-11-11T03:27:43.477Z,11.96
2018-11-11T03:28:43.607Z,11.97
2018-11-11T03:29:43.736Z,11.99
2018-11-11T03:30:43.873Z,11.97
2018-11-11T03:31:44.124Z,11.95
2018-11-11T03:32:44.147Z,11.99
2018-11-11T03:33:44.279Z,11.95
2018-11-11T03:34:44.404Z,11.93
2018-11-11T03:35:44.535Z,11.87
2018-11-11T03:36:44.672Z,12.00
2018-11-11T03:37:44.806Z,11.97
2018-11-11T03:38:44.940Z,11.97
2018-11-11T03:39:45.071Z,11.93
2018-11-11T03:40:45.204Z,12.03
2018-11-11T03:41:45.333Z,12.05
2018-11-11T03:42:45.462Z,12.04
2018-11-11T03:43:45.597Z,11.96
2018-11-11T03:44:45.735Z,12.00
2018-11-11T03:45:45.871Z,11.99
2018-11-11T03:46:46.005Z,11.95
2018-11-11T03:47:46.140Z,11.91
2018-11-11T03:48:46.274Z,11.95
2018-11-11T03:49:46.406Z,11.93
2018-11-11T03:50:46.537Z,12.00
2018-11-11T03:51:46.666Z,11.97
2018-11-11T03:52:46.820Z,11.96
2018-11-11T03:53:46.932Z,12.03
2018-11-11T03:54:47.060Z,12.03
2018-11-11T03:55:47.194Z,12.07
2018-11-11T03:56:47.333Z,12.10
2018-11-11T03:57:47.460Z,12.05
2018-11-11T03:58:47.825Z,11.96
2018-11-11T03:59:47.725Z,11.93
2018-11-11T04:00:47.858Z,11.89
2018-11-11T04:01:47.991Z,11.77
2018-11-11T04:02:48.124Z,11.88
2018-11-11T04:03:48.253Z,11.74
2018-11-11T04:04:48.391Z,11.73
2018-11-11T04:05:48.521Z,11.77
2018-11-11T04:06:48.649Z,11.82
2018-11-11T04:07:48.785Z,11.79
2018-11-11T04:08:48.916Z,11.80
2018-11-11T04:09:49.047Z,11.71
2018-11-11T04:10:49.170Z,11.74
2018-11-11T04:11:49.306Z,11.76
2018-11-11T04:12:49.441Z,11.74
2018-11-11T04:13:49.565Z,11.74
2018-11-11T04:14:49.701Z,11.73
2018-11-11T04:15:49.835Z,11.73
2018-11-11T04:16:49.971Z,11.66
2018-11-11T04:17:50.099Z,11.80
2018-11-11T04:18:50.231Z,11.80
2018-11-11T04:19:50.356Z,11.73
2018-11-11T04:20:50.488Z,11.71
2018-11-11T04:21:50.624Z,11.73
2018-11-11T04:22:50.764Z,11.70
2018-11-11T04:23:50.887Z,11.77
2018-11-11T04:24:51.023Z,11.73
2018-11-11T04:25:51.160Z,11.76
2018-11-11T04:26:51.289Z,11.77
2018-11-11T04:27:51.413Z,11.73
2018-11-11T04:28:51.591Z,11.79
2018-11-11T04:29:51.731Z,11.80
2018-11-11T04:30:51.860Z,11.76
2018-11-11T04:31:52.007Z,11.79
2018-11-11T04:32:52.141Z,11.84
2018-11-11T04:33:52.263Z,11.80
2018-11-11T04:34:52.413Z,11.87
2018-11-11T04:35:52.537Z,11.85
2018-11-11T04:36:52.666Z,11.91
2018-11-11T04:37:52.803Z,11.85
2018-11-11T04:38:52.976Z,11.85
2018-11-11T04:39:53.067Z,11.96
2018-11-11T04:40:53.200Z,11.88
2018-11-11T04:41:53.336Z,11.97
2018-11-11T04:42:53.471Z,11.97
2018-11-11T04:43:53.604Z,11.99
2018-11-11T04:44:53.735Z,12.04
2018-11-11T04:45:53.870Z,12.00
2018-11-11T04:46:54.002Z,12.11
2018-11-11T04:47:54.133Z,12.14
2018-11-11T04:48:54.268Z,12.05
2018-11-11T04:49:54.397Z,12.14
2018-11-11T04:50:54.528Z,12.11
2018-11-11T04:51:54.657Z,12.13
2018-11-11T04:52:54.794Z,12.05
2018-11-11T04:53:54.931Z,12.14
2018-11-11T04:54:55.057Z,12.23
2018-11-11T04:55:55.190Z,12.25
2018-11-11T04:56:55.325Z,12.21
2018-11-11T04:57:55.512Z,12.21
2018-11-11T04:58:55.647Z,12.21
2018-11-11T04:59:55.786Z,12.29
2018-11-11T05:00:55.926Z,12.22
2018-11-11T05:01:56.063Z,12.35
2018-11-11T05:02:56.188Z,12.33
2018-11-11T05:03:56.330Z,12.29
2018-11-11T05:04:56.469Z,12.30
2018-11-11T05:05:56.600Z,12.23
2018-11-11T05:06:56.730Z,12.26
2018-11-11T05:07:56.868Z,12.26
2018-11-11T05:08:57.001Z,12.28
2018-11-11T05:09:57.131Z,12.26
2018-11-11T05:10:57.265Z,12.29
2018-11-11T05:11:57.397Z,12.28
2018-11-11T05:12:57.558Z,12.32
2018-11-11T05:13:57.684Z,12.18
2018-11-11T05:14:57.819Z,12.25
2018-11-11T05:15:57.952Z,12.23
2018-11-11T05:16:58.085Z,12.18
2018-11-11T05:17:58.236Z,12.18
2018-11-11T05:18:58.363Z,12.18
2018-11-11T05:19:58.492Z,12.23
2018-11-11T05:20:58.622Z,12.29
2018-11-11T05:21:58.818Z,12.23
2018-11-11T05:23:20.168Z,12.28
2018-11-11T05:23:59.087Z,12.36
2018-11-11T05:24:59.172Z,12.23
2018-11-11T05:25:59.326Z,12.22
2018-11-11T05:27:14.359Z,12.26
2018-11-11T05:27:59.616Z,12.23
2018-11-11T05:28:59.756Z,12.21
2018-11-11T05:29:59.882Z,12.22
2018-11-11T05:31:00.079Z,12.30
2018-11-11T05:32:00.154Z,12.36
2018-11-11T05:33:01.028Z,12.33
2018-11-11T05:34:00.440Z,12.40
2018-11-11T05:35:00.576Z,12.46
2018-11-11T05:36:00.710Z,12.46
2018-11-11T05:37:00.840Z,12.47
2018-11-11T05:38:00.970Z,12.44
2018-11-11T05:39:01.104Z,12.47
2018-11-11T05:40:01.241Z,12.51
2018-11-11T05:41:01.371Z,12.40
2018-11-11T05:42:01.503Z,12.32
2018-11-11T05:43:01.635Z,12.29
2018-11-11T05:44:01.775Z,12.29
2018-11-11T05:45:01.899Z,12.29
2018-11-11T05:46:02.039Z,12.35
2018-11-11T05:47:02.186Z,12.40
2018-11-11T05:48:02.301Z,12.26
2018-11-11T05:49:02.435Z,12.21
2018-11-11T05:50:02.570Z,12.33
2018-11-11T05:51:02.700Z,12.38
2018-11-11T05:52:02.830Z,12.40
2018-11-11T05:53:02.966Z,12.36
2018-11-11T05:54:03.100Z,12.43
2018-11-11T05:55:03.234Z,12.33
2018-11-11T05:56:03.388Z,12.36
2018-11-11T05:57:03.520Z,12.35
2018-11-11T05:58:03.650Z,12.35
2018-11-11T05:59:03.853Z,12.40
2018-11-11T06:00:03.862Z,12.41
2018-11-11T06:01:03.993Z,12.40
2018-11-11T06:02:04.130Z,12.28
2018-11-11T06:03:04.260Z,12.30
2018-11-11T06:04:04.393Z,12.26
2018-11-11T06:05:04.523Z,12.40
2018-11-11T06:06:04.657Z,12.23
2018-11-11T06:07:04.788Z,12.44
2018-11-11T06:08:04.919Z,12.26
2018-11-11T06:09:05.052Z,12.40
2018-11-11T06:10:05.185Z,12.33
2018-11-11T06:11:05.316Z,12.35
2018-11-11T06:12:05.446Z,12.25
2018-11-11T06:13:05.607Z,12.29
2018-11-11T06:14:05.737Z,12.25
2018-11-11T06:15:05.867Z,12.17
2018-11-11T06:16:06.010Z,12.18
2018-11-11T06:17:06.157Z,12.10
2018-11-11T06:18:06.283Z,12.14
2018-11-11T06:19:06.419Z,12.13
2018-11-11T06:20:06.553Z,12.22
2018-11-11T06:21:06.689Z,12.23
2018-11-11T06:22:06.817Z,12.13
2018-11-11T06:23:06.950Z,12.10
2018-11-11T06:24:07.082Z,12.08
2018-11-11T06:25:07.218Z,12.13
2018-11-11T06:26:07.358Z,12.10
2018-11-11T06:27:07.484Z,12.05
2018-11-11T06:28:07.616Z,12.15
2018-11-11T06:29:07.793Z,12.05
2018-11-11T06:30:08.779Z,12.10
2018-11-11T06:31:08.038Z,12.04
2018-11-11T06:32:08.178Z,12.04
2018-11-11T06:33:08.318Z,12.10
2018-11-11T06:34:08.516Z,12.04
2018-11-11T06:35:08.586Z,12.13
2018-11-11T06:36:08.722Z,12.00
2018-11-11T06:37:08.854Z,11.99
2018-11-11T06:38:08.990Z,12.04
2018-11-11T06:39:09.121Z,12.04
2018-11-11T06:40:09.252Z,12.00
2018-11-11T06:41:09.381Z,11.95
2018-11-11T06:42:09.551Z,12.03
2018-11-11T06:43:09.680Z,11.97
2018-11-11T06:44:09.820Z,12.11
2018-11-11T06:45:09.961Z,12.04
2018-11-11T06:46:10.094Z,11.96
2018-11-11T06:47:10.234Z,12.03
2018-11-11T06:48:10.485Z,12.00
2018-11-11T06:49:10.512Z,11.91
2018-11-11T06:50:10.645Z,11.96
2018-11-11T06:51:10.776Z,11.93
2018-11-11T06:52:10.914Z,11.96
2018-11-11T06:53:11.050Z,12.00
2018-11-11T06:54:11.184Z,11.96
2018-11-11T06:55:11.318Z,12.07
2018-11-11T06:56:11.445Z,11.91
2018-11-11T06:57:11.576Z,11.96
2018-11-11T06:58:11.783Z,11.91
2018-11-11T06:59:11.834Z,11.99
2018-11-11T07:00:11.969Z,11.95
2018-11-11T07:01:12.097Z,11.93
2018-11-11T07:02:12.231Z,11.93
2018-11-11T07:03:12.369Z,12.00
2018-11-11T07:04:12.498Z,11.87
2018-11-11T07:05:12.635Z,11.80
2018-11-11T07:06:12.766Z,11.97
2018-11-11T07:07:12.899Z,11.95
2018-11-11T07:08:13.031Z,11.82
2018-11-11T07:09:13.166Z,11.84
2018-11-11T07:10:13.298Z,11.97
2018-11-11T07:11:13.471Z,11.99
2018-11-11T07:12:13.603Z,11.93
2018-11-11T07:13:13.738Z,11.97
2018-11-11T07:14:13.977Z,11.93
2018-11-11T07:15:14.013Z,11.88
2018-11-11T07:16:14.147Z,11.87
2018-11-11T07:17:14.281Z,11.79
2018-11-11T07:18:14.411Z,11.77
2018-11-11T07:19:14.545Z,11.71
2018-11-11T07:20:14.680Z,11.76
2018-11-11T07:21:14.833Z,11.73
2018-11-11T07:22:15.011Z,11.71
2018-11-11T07:23:15.135Z,11.69
2018-11-11T07:24:15.289Z,11.64
2018-11-11T07:25:15.414Z,11.66
2018-11-11T07:26:15.540Z,11.59
2018-11-11T07:27:15.668Z,11.54
2018-11-11T07:28:15.801Z,11.55
2018-11-11T07:29:15.978Z,11.52
2018-11-11T07:30:28.308Z,11.62
2018-11-11T07:31:16.190Z,11.54
2018-11-11T07:32:16.320Z,11.55
2018-11-11T07:33:16.465Z,11.54
2018-11-11T07:34:16.593Z,11.45
2018-11-11T07:35:16.724Z,11.52
2018-11-11T07:36:16.855Z,11.40
2018-11-11T07:37:17.009Z,11.37
2018-11-11T07:38:17.739Z,11.38
2018-11-11T07:39:17.250Z,11.38
2018-11-11T07:40:17.386Z,11.40
2018-11-11T07:41:17.532Z,11.37
2018-11-11T07:42:17.720Z,11.36
2018-11-11T07:43:17.882Z,11.38
2018-11-11T07:44:17.894Z,11.30
2018-11-11T07:45:18.057Z,11.34
2018-11-11T07:46:29.111Z,11.37
2018-11-11T07:47:18.362Z,11.33
2018-11-11T07:48:18.495Z,11.31
2018-11-11T07:49:18.635Z,11.27
2018-11-11T07:50:18.767Z,11.19
2018-11-11T07:51:18.901Z,11.31
2018-11-11T07:52:19.031Z,11.23
2018-11-11T07:53:19.178Z,11.20
2018-11-11T07:54:19.354Z,11.16
2018-11-11T07:55:19.500Z,11.25
2018-11-11T07:56:19.621Z,11.22
2018-11-11T07:57:19.792Z,11.23
2018-11-11T07:58:19.930Z,11.20
2018-11-11T07:59:20.056Z,11.30
2018-11-11T08:00:20.182Z,11.28
2018-11-11T08:01:20.338Z,11.25
2018-11-11T08:02:31.081Z,11.30
2018-11-11T08:03:20.584Z,11.22
2018-11-11T08:04:20.718Z,11.22
2018-11-11T08:05:20.861Z,11.22
2018-11-11T08:06:20.984Z,11.38
2018-11-11T08:07:21.116Z,11.49
2018-11-11T08:08:21.243Z,11.54
2018-11-11T08:09:21.378Z,11.52
2018-11-11T08:10:22.045Z,11.41
2018-11-11T08:11:21.678Z,11.49
2018-11-11T08:12:21.841Z,11.46
2018-11-11T08:13:22.016Z,11.58
2018-11-11T08:14:22.220Z,11.54
2018-11-11T08:15:22.234Z,11.61
2018-11-11T08:16:22.362Z,11.69
2018-11-11T08:17:22.514Z,11.66
2018-11-11T08:18:28.322Z,11.66
2018-11-11T08:19:22.830Z,11.74
2018-11-11T08:20:22.968Z,11.71
2018-11-11T08:21:23.197Z,11.69
2018-11-11T08:22:23.238Z,11.71
2018-11-11T08:23:23.372Z,11.82
2018-11-11T08:24:23.505Z,11.77
2018-11-11T08:25:23.687Z,11.80
2018-11-11T08:26:23.828Z,11.82
2018-11-11T08:27:24.638Z,11.73
2018-11-11T08:28:24.077Z,11.73
2018-11-11T08:29:24.193Z,11.79
2018-11-11T08:30:24.318Z,11.88
2018-11-11T08:31:24.451Z,11.89
2018-11-11T08:32:24.682Z,11.73
2018-11-11T08:33:24.728Z,11.82
2018-11-11T08:34:24.867Z,11.85
2018-11-11T08:35:24.996Z,11.76
2018-11-11T08:36:25.132Z,11.77
2018-11-11T08:37:25.260Z,11.77
2018-11-11T08:38:25.391Z,11.76
2018-11-11T08:39:25.529Z,11.73
2018-11-11T08:40:25.711Z,11.62
2018-11-11T08:41:25.877Z,11.73
2018-11-11T08:42:26.008Z,11.80
2018-11-11T08:43:26.143Z,11.76
2018-11-11T08:44:26.298Z,11.79
2018-11-11T08:45:26.433Z,11.73
2018-11-11T08:46:26.567Z,11.77
2018-11-11T08:47:26.715Z,11.71
2018-11-11T08:48:26.841Z,11.74
2018-11-11T08:49:26.977Z,11.67
2018-11-11T08:50:27.110Z,11.73
2018-11-11T08:51:27.249Z,11.80
2018-11-11T08:52:27.381Z,11.73
2018-11-11T08:53:27.523Z,11.89
2018-11-11T08:54:27.654Z,11.76
2018-11-11T08:55:28.396Z,11.71
2018-11-11T08:56:28.020Z,11.80
2018-11-11T08:57:28.028Z,11.74
2018-11-11T08:58:28.175Z,11.88
2018-11-11T08:59:28.309Z,11.82
2018-11-11T09:00:28.443Z,11.79
2018-11-11T09:01:28.575Z,11.89
2018-11-11T09:02:28.703Z,11.91
2018-11-11T09:03:28.878Z,11.96
2018-11-11T09:04:29.015Z,11.99
2018-11-11T09:05:29.145Z,11.99
2018-11-11T09:06:29.281Z,11.79
2018-11-11T09:07:29.424Z,11.95
2018-11-11T09:08:29.640Z,11.99
2018-11-11T09:09:29.652Z,11.96
2018-11-11T09:10:29.784Z,11.96
2018-11-11T09:11:30.011Z,11.97
2018-11-11T09:12:30.059Z,11.91
2018-11-11T09:13:30.191Z,11.95
2018-11-11T09:14:30.324Z,11.93
2018-11-11T09:15:30.475Z,11.96
2018-11-11T09:16:30.604Z,11.95
2018-11-11T09:17:30.738Z,12.00
2018-11-11T09:18:30.868Z,12.13
2018-11-11T09:19:31.002Z,12.13
2018-11-11T09:20:31.136Z,12.28
2018-11-11T09:21:31.359Z,12.40
2018-11-11T09:22:31.404Z,12.43
2018-11-11T09:23:31.559Z,12.54
2018-11-11T09:24:31.665Z,12.54
2018-11-11T09:25:31.797Z,12.63
2018-11-11T09:26:31.930Z,12.71
2018-11-11T09:27:32.064Z,12.80
2018-11-11T09:28:32.195Z,12.91
2018-11-11T09:29:32.349Z,12.84
2018-11-11T09:30:32.587Z,12.98
2018-11-11T09:31:32.600Z,13.08
2018-11-11T09:32:32.742Z,13.05
2018-11-11T09:33:32.879Z,13.05
2018-11-11T09:34:33.012Z,12.96
2018-11-11T09:35:33.140Z,12.93
2018-11-11T09:36:33.273Z,12.91
2018-11-11T09:37:33.406Z,12.80
2018-11-11T09:38:33.538Z,12.80
2018-11-11T09:39:33.668Z,12.79
2018-11-11T09:40:33.800Z,12.76
2018-11-11T09:41:33.933Z,12.86
2018-11-11T09:42:34.798Z,12.80
2018-11-11T09:43:34.199Z,12.87
2018-11-11T09:44:34.334Z,12.84
2018-11-11T09:45:34.474Z,12.91
2018-11-11T09:46:34.603Z,12.86
2018-11-11T09:47:34.780Z,12.95
2018-11-11T09:48:34.869Z,12.83
2018-11-11T09:49:35.007Z,12.96
2018-11-11T09:50:35.133Z,12.91
2018-11-11T09:51:35.265Z,13.09
2018-11-11T09:52:35.448Z,13.23
2018-11-11T09:53:35.538Z,13.27
2018-11-11T09:54:35.670Z,13.24
2018-11-11T09:55:35.807Z,13.16
2018-11-11T09:56:35.936Z,13.13
2018-11-11T09:57:36.078Z,13.09
2018-11-11T09:58:36.264Z,13.16
2018-11-11T09:59:36.353Z,13.26
2018-11-11T10:00:36.479Z,13.11
2018-11-11T10:01:36.613Z,13.21
2018-11-11T10:02:36.747Z,13.09
2018-11-11T10:03:36.887Z,13.16
2018-11-11T10:04:37.027Z,13.14
2018-11-11T10:05:37.157Z,13.20
2018-11-11T10:06:37.397Z,13.20
2018-11-11T10:07:37.428Z,13.20
2018-11-11T10:08:37.563Z,13.19
2018-11-11T10:09:37.698Z,13.23
2018-11-11T10:10:37.831Z,13.21
2018-11-11T10:11:38.018Z,13.24
2018-11-11T10:12:38.216Z,13.30
2018-11-11T10:13:38.195Z,13.43
2018-11-11T10:14:38.331Z,13.42
2018-11-11T10:15:38.464Z,13.39
2018-11-11T10:16:38.599Z,13.43
2018-11-11T10:17:38.743Z,13.49
2018-11-11T10:18:38.874Z,13.45
2018-11-11T10:19:39.011Z,13.36
2018-11-11T10:20:39.199Z,13.67
2018-11-11T10:21:39.275Z,13.71
2018-11-11T10:22:39.407Z,13.67
2018-11-11T10:23:39.543Z,13.72
2018-11-11T10:24:39.679Z,13.71
2018-11-11T10:25:39.803Z,13.72
2018-11-11T10:26:39.939Z,13.79
2018-11-11T10:27:40.078Z,13.79
2018-11-11T10:28:40.234Z,13.90
2018-11-11T10:29:40.381Z,13.91
2018-11-11T10:30:40.506Z,13.98
2018-11-11T10:31:40.646Z,14.01
2018-11-11T10:32:40.780Z,14.30
2018-11-11T10:33:41.038Z,14.21
2018-11-11T10:34:41.053Z,14.21
2018-11-11T10:35:41.184Z,14.00
2018-11-11T10:36:41.319Z,14.16
2018-11-11T10:37:41.455Z,13.90
2018-11-11T10:38:41.585Z,14.15
2018-11-11T10:39:41.736Z,14.18
2018-11-11T10:40:41.871Z,14.27
2018-11-11T10:41:42.003Z,14.37
2018-11-11T10:42:42.140Z,14.51
2018-11-11T10:43:42.273Z,14.52
2018-11-11T10:44:42.407Z,14.66
2018-11-11T10:45:42.541Z,14.85
2018-11-11T10:46:42.674Z,14.97
2018-11-11T10:47:42.832Z,15.01
2018-11-11T10:48:43.002Z,15.14
2018-11-11T10:49:43.136Z,15.30
2018-11-11T10:50:43.277Z,15.41
2018-11-11T10:51:43.440Z,15.65
2018-11-11T10:52:43.571Z,15.70
2018-11-11T10:53:43.705Z,15.72
2018-11-11T10:54:43.847Z,15.88
2018-11-11T10:55:43.988Z,15.84
2018-11-11T10:56:44.129Z,15.87
2018-11-11T10:57:44.249Z,15.84
2018-11-11T10:58:44.394Z,15.83
2018-11-11T10:59:44.563Z,15.78
2018-11-11T11:00:45.393Z,15.69
2018-11-11T11:01:44.846Z,15.68
2018-11-11T11:02:44.987Z,15.69
2018-11-11T11:03:45.154Z,15.70
2018-11-11T11:04:45.281Z,15.70
2018-11-11T11:05:45.421Z,15.59
2018-11-11T11:06:45.563Z,15.69
2018-11-11T11:07:45.698Z,15.63
2018-11-11T11:08:45.899Z,15.72
2018-11-11T11:09:45.932Z,15.88
2018-11-11T11:10:46.074Z,15.65
2018-11-11T11:11:46.247Z,15.63
2018-11-11T11:12:46.432Z,15.66
2018-11-11T11:13:46.614Z,15.78
2018-11-11T11:14:46.715Z,15.90
2018-11-11T11:15:46.882Z,15.96
2018-11-11T11:16:47.016Z,15.81
2018-11-11T11:17:47.158Z,15.73
2018-11-11T11:18:47.295Z,15.83
2018-11-11T11:19:47.434Z,15.78
2018-11-11T11:20:47.571Z,15.52
2018-11-11T11:21:47.711Z,15.43
2018-11-11T11:22:47.905Z,15.19
2018-11-11T11:23:48.010Z,15.04
2018-11-11T11:24:48.138Z,14.92
2018-11-11T11:25:48.313Z,14.77
2018-11-11T11:26:48.434Z,14.77
2018-11-11T11:27:48.623Z,14.82
2018-11-11T11:28:48.774Z,14.73
2018-11-11T11:29:48.931Z,14.71
2018-11-11T11:30:49.073Z,14.64
2018-11-11T11:31:49.325Z,14.64
2018-11-11T11:32:49.334Z,14.77
2018-11-11T11:33:49.467Z,14.70
2018-11-11T11:34:49.605Z,14.61
2018-11-11T11:35:49.835Z,14.66
2018-11-11T11:36:49.954Z,14.55
2018-11-11T11:37:49.961Z,14.67
2018-11-11T11:38:50.101Z,14.73
2018-11-11T11:39:50.236Z,14.67
2018-11-11T11:40:50.377Z,14.69
2018-11-11T11:41:50.514Z,14.64
2018-11-11T11:42:50.654Z,14.53
2018-11-11T11:43:50.841Z,14.56
2018-11-11T11:44:50.954Z,14.45
2018-11-11T11:45:51.089Z,14.56
2018-11-11T11:46:51.231Z,14.52
2018-11-11T11:47:51.371Z,14.31
2018-11-11T11:48:51.505Z,14.38
2018-11-11T11:49:51.666Z,14.33
2018-11-11T11:50:51.782Z,14.38
2018-11-11T11:51:51.923Z,14.23
2018-11-11T11:52:52.100Z,14.19
2018-11-11T11:53:52.196Z,14.28
2018-11-11T11:54:52.322Z,14.33
2018-11-11T11:55:52.457Z,14.51
2018-11-11T11:56:52.589Z,14.49
2018-11-11T11:57:52.732Z,14.83
2018-11-11T11:58:52.858Z,14.86
2018-11-11T11:59:53.001Z,14.82
2018-11-11T12:00:53.135Z,14.89
2018-11-11T12:01:53.278Z,14.90
2018-11-11T12:02:53.402Z,14.87
2018-11-11T12:03:53.537Z,14.86
2018-11-11T12:04:53.679Z,14.77
2018-11-11T12:05:54.716Z,14.71
2018-11-11T12:06:54.015Z,14.67
2018-11-11T12:07:54.145Z,14.53
2018-11-11T12:08:55.152Z,14.59
2018-11-11T12:09:54.404Z,14.63
2018-11-11T12:11:00.345Z,14.64
2018-11-11T12:11:54.753Z,14.56
2018-11-11T12:12:54.896Z,14.51
2018-11-11T12:13:55.033Z,14.58
2018-11-11T12:14:55.169Z,14.58
2018-11-11T12:15:55.312Z,14.56
2018-11-11T12:16:55.453Z,14.55
2018-11-11T12:17:55.578Z,14.53
2018-11-11T12:18:55.712Z,14.44
2018-11-11T12:19:55.859Z,14.44
2018-11-11T12:20:56.764Z,14.51
2018-11-11T12:21:56.118Z,14.49
2018-11-11T12:22:56.297Z,14.51
2018-11-11T12:23:56.386Z,14.52
2018-11-11T12:24:56.519Z,14.70
2018-11-11T12:25:56.653Z,14.61
2018-11-11T12:26:56.785Z,14.71
2018-11-11T12:27:56.916Z,14.74
2018-11-11T12:28:57.049Z,14.74
2018-11-11T12:29:57.186Z,14.77
2018-11-11T12:30:57.375Z,14.66
2018-11-11T12:31:57.460Z,14.61
2018-11-11T12:32:57.587Z,14.59
2018-11-11T12:33:57.725Z,14.70
2018-11-11T12:34:57.869Z,14.71
2018-11-11T12:35:58.002Z,14.69
2018-11-11T12:36:58.169Z,14.64
2018-11-11T12:38:11.072Z,14.59
2018-11-11T12:38:58.530Z,14.51
2018-11-11T12:39:58.743Z,14.56
2018-11-11T12:40:58.721Z,14.48
2018-11-11T12:41:58.849Z,14.53
2018-11-11T12:42:58.987Z,14.51
2018-11-11T12:43:59.127Z,14.46
2018-11-11T12:44:59.250Z,14.51
2018-11-11T12:45:59.380Z,14.40
2018-11-11T12:46:59.668Z,14.44
2018-11-11T12:47:59.665Z,14.48
2018-11-11T12:48:59.828Z,14.45
2018-11-11T12:49:59.927Z,14.45
2018-11-11T12:51:00.062Z,14.26
2018-11-11T12:52:00.203Z,14.30
2018-11-11T12:53:00.345Z,14.31
2018-11-11T12:54:00.476Z,14.30
2018-11-11T12:55:00.609Z,14.33
2018-11-11T12:56:00.744Z,14.28
2018-11-11T12:57:00.878Z,14.37